createdAt,value
2019-03-22T00:00:51.585Z,11.87
2019-03-22T00:03:39.704Z,11.30
2019-03-22T00:06:27.833Z,11.13
2019-03-22T00:09:15.455Z,10.97
2019-03-22T00:12:04.360Z,10.43
2019-03-22T00:14:53.280Z,10.67
2019-03-22T00:17:43.050Z,11.50
2019-03-22T00:20:31.898Z,11.07
2019-03-22T00:23:20.392Z,10.87
2019-03-22T00:26:08.213Z,10.97
2019-03-22T00:28:56.156Z,10.50
2019-03-22T00:31:44.225Z,10.50
2019-03-22T00:34:32.551Z,9.90
2019-03-22T00:37:20.485Z,10.40
2019-03-22T00:40:08.773Z,11.03
2019-03-22T00:42:56.872Z,10.30
2019-03-22T00:45:45.744Z,10.27
2019-03-22T00:48:34.268Z,10.60
2019-03-22T00:51:22.595Z,10.30
2019-03-22T00:54:10.431Z,9.67
2019-03-22T00:56:58.307Z,10.40
2019-03-22T00:59:46.509Z,9.93
2019-03-22T01:02:34.577Z,10.57
2019-03-22T01:05:22.269Z,10.90
2019-03-22T01:08:09.896Z,10.23
2019-03-22T01:10:58.102Z,11.23
2019-03-22T01:13:46.266Z,11.40
2019-03-22T01:16:33.890Z,11.13
2019-03-22T01:19:21.553Z,11.27
2019-03-22T01:22:09.561Z,11.10
2019-03-22T01:24:57.864Z,11.07
2019-03-22T01:27:45.911Z,9.93
2019-03-22T01:30:33.749Z,11.20
2019-03-22T01:33:21.879Z,11.37
2019-03-22T01:36:09.526Z,11.03
2019-03-22T01:38:57.772Z,11.87
2019-03-22T01:41:49.547Z,11.73
2019-03-22T01:44:44.793Z,11.17
2019-03-22T01:47:39.278Z,10.87
2019-03-22T01:53:40.341Z,10.70
2019-03-22T01:56:40.384Z,10.83
2019-03-22T01:59:29.960Z,11.13
2019-03-22T02:02:40.142Z,11.27
2019-03-22T02:05:37.068Z,10.83
2019-03-22T02:08:28.157Z,10.87
2019-03-22T02:11:22.569Z,11.93
2019-03-22T02:14:15.413Z,11.43
2019-03-22T02:17:05.943Z,11.77
2019-03-22T02:20:08.268Z,10.87
2019-03-22T02:22:56.747Z,11.57
2019-03-22T02:25:49.876Z,11.40
2019-03-22T02:28:45.501Z,11.83
2019-03-22T02:31:38.760Z,11.60
2019-03-22T02:34:35.612Z,12.23
2019-03-22T02:37:32.857Z,11.40
2019-03-22T02:40:24.083Z,10.70
2019-03-22T02:43:18.089Z,11.60
2019-03-22T02:46:29.132Z,11.67
2019-03-22T02:49:30.697Z,11.10
2019-03-22T02:52:23.670Z,12.03
2019-03-22T02:55:16.209Z,12.07
2019-03-22T02:58:19.917Z,11.50
2019-03-22T03:01:07.307Z,11.67
2019-03-22T03:03:59.560Z,10.27
2019-03-22T03:06:51.192Z,10.83
2019-03-22T03:09:45.387Z,10.37
2019-03-22T03:12:42.695Z,10.40
2019-03-22T03:16:07.649Z,11.37
2019-03-22T03:18:58.029Z,11.47
2019-03-22T03:21:50.589Z,11.07
2019-03-22T03:24:47.128Z,10.67
2019-03-22T03:27:38.446Z,11.33
2019-03-22T03:30:42.551Z,10.10
2019-03-22T03:33:33.382Z,10.47
2019-03-22T03:36:30.606Z,10.47
2019-03-22T03:39:23.768Z,10.83
2019-03-22T03:42:21.643Z,11.47
2019-03-22T03:45:20.348Z,10.50
2019-03-22T03:48:10.834Z,11.23
2019-03-22T03:51:06.880Z,11.03
2019-03-22T03:53:56.138Z,11.13
2019-03-22T03:56:47.038Z,9.30
2019-03-22T04:00:04.659Z,9.77
2019-03-22T04:03:00.686Z,9.73
2019-03-22T04:05:53.103Z,10.27
2019-03-22T04:08:50.130Z,10.30
2019-03-22T04:11:45.370Z,10.57
2019-03-22T04:14:39.653Z,10.60
2019-03-22T04:17:28.244Z,10.87
2019-03-22T04:20:16.308Z,10.73
2019-03-22T04:23:39.222Z,10.87
2019-03-22T04:26:27.743Z,10.47
2019-03-22T04:29:28.770Z,11.70
2019-03-22T04:32:34.683Z,10.90
2019-03-22T04:35:23.692Z,11.33
2019-03-22T04:38:13.929Z,10.50
2019-03-22T04:41:24.005Z,10.53
2019-03-22T04:44:30.941Z,11.00
2019-03-22T04:47:28.020Z,10.77
2019-03-22T04:50:36.980Z,10.73
2019-03-22T04:57:25.796Z,10.40
2019-03-22T05:00:55.117Z,10.13
2019-03-22T05:04:15.034Z,10.10
2019-03-22T05:11:08.844Z,10.77
2019-03-22T05:14:00.828Z,10.93
2019-03-22T05:16:54.479Z,10.43
2019-03-22T05:19:51.758Z,10.70
2019-03-22T05:26:46.387Z,10.60
2019-03-22T05:30:17.594Z,10.13
2019-03-22T05:33:35.976Z,11.20
2019-03-22T05:36:43.864Z,11.03
2019-03-22T05:43:23.194Z,11.20
2019-03-22T05:46:25.162Z,10.23
2019-03-22T05:49:36.542Z,10.13
2019-03-22T05:53:10.148Z,11.07
2019-03-22T05:56:33.029Z,10.97
2019-03-22T06:00:25.000Z,10.87
2019-03-22T06:03:50.355Z,10.83
2019-03-22T06:07:25.193Z,10.00
2019-03-22T06:10:25.964Z,10.50
2019-03-22T06:14:00.982Z,10.17
2019-03-22T06:17:50.955Z,10.47
2019-03-22T06:20:58.439Z,9.37
2019-03-22T06:24:29.616Z,10.47
2019-03-22T06:27:18.249Z,9.73
2019-03-22T06:30:07.744Z,10.20
2019-03-22T06:33:00.158Z,11.37
2019-03-22T06:35:48.789Z,11.43
2019-03-22T06:38:37.372Z,10.97
2019-03-22T06:41:25.988Z,11.00
2019-03-22T06:44:14.508Z,11.40
2019-03-22T06:47:03.098Z,13.80
2019-03-22T06:49:52.882Z,13.30
2019-03-22T06:52:41.534Z,12.33
2019-03-22T06:55:29.883Z,11.37
2019-03-22T06:58:18.157Z,10.90
2019-03-22T07:01:11.782Z,12.37
2019-03-22T07:03:56.320Z,11.13
2019-03-22T07:06:44.481Z,11.23
2019-03-22T07:09:36.016Z,10.57
2019-03-22T07:12:24.552Z,10.47
2019-03-22T07:15:13.376Z,10.17
2019-03-22T07:18:04.044Z,10.70
2019-03-22T07:20:54.987Z,10.60
2019-03-22T07:23:45.585Z,10.30
2019-03-22T07:26:35.307Z,11.00
2019-03-22T07:29:23.944Z,11.00
2019-03-22T07:32:12.310Z,11.27
2019-03-22T07:35:01.133Z,10.87
2019-03-22T07:37:49.486Z,10.77
2019-03-22T07:40:38.265Z,10.33
2019-03-22T07:43:26.159Z,10.73
2019-03-22T07:46:17.375Z,10.57
2019-03-22T07:49:05.672Z,10.10
2019-03-22T07:51:54.175Z,10.67
2019-03-22T07:54:42.137Z,10.70
2019-03-22T07:57:31.019Z,10.43
2019-03-22T08:00:30.223Z,10.67
2019-03-22T08:03:09.219Z,10.57
2019-03-22T08:06:00.965Z,10.87
2019-03-22T08:08:49.198Z,10.27
2019-03-22T08:11:37.925Z,10.90
2019-03-22T08:14:25.785Z,9.90
2019-03-22T08:17:19.297Z,10.63
2019-03-22T08:20:07.675Z,10.30
2019-03-22T08:22:56.755Z,10.83
2019-03-22T08:25:47.287Z,10.97
2019-03-22T08:28:36.833Z,10.73
2019-03-22T08:31:27.993Z,10.77
2019-03-22T08:34:16.872Z,11.00
2019-03-22T08:37:07.999Z,10.13
2019-03-22T08:40:01.443Z,9.80
2019-03-22T08:42:51.751Z,10.27
2019-03-22T08:45:40.271Z,10.40
2019-03-22T08:48:31.100Z,10.53
2019-03-22T08:51:19.412Z,11.10
2019-03-22T08:54:07.384Z,11.43
2019-03-22T08:56:56.115Z,10.87
2019-03-22T08:59:44.771Z,10.93
2019-03-22T09:02:34.131Z,11.30
2019-03-22T09:05:22.941Z,11.00
2019-03-22T09:08:11.481Z,10.77
2019-03-22T09:11:02.459Z,11.73
2019-03-22T09:13:53.648Z,11.23
2019-03-22T09:16:43.746Z,11.33
2019-03-22T09:19:31.665Z,11.87
2019-03-22T09:22:23.075Z,12.30
2019-03-22T09:25:11.930Z,11.73
2019-03-22T09:28:01.946Z,11.80
2019-03-22T09:30:50.028Z,11.80
2019-03-22T09:33:38.537Z,12.50
2019-03-22T09:36:29.447Z,12.70
2019-03-22T09:39:17.661Z,13.10
2019-03-22T09:42:06.195Z,13.20
2019-03-22T09:44:57.534Z,13.27
2019-03-22T09:47:48.961Z,14.10
2019-03-22T09:50:37.432Z,13.17
2019-03-22T09:53:25.746Z,12.97
2019-03-22T09:56:15.991Z,14.53
2019-03-22T09:59:04.285Z,14.10
2019-03-22T10:01:52.600Z,14.30
2019-03-22T10:04:41.148Z,14.17
2019-03-22T10:07:30.088Z,13.93
2019-03-22T10:10:18.490Z,13.90
2019-03-22T10:13:07.038Z,14.93
2019-03-22T10:16:00.273Z,13.83
2019-03-22T10:18:53.040Z,14.93
2019-03-22T10:21:51.590Z,14.33
2019-03-22T10:24:40.022Z,13.23
2019-03-22T10:27:38.836Z,14.20
2019-03-22T10:30:27.566Z,13.50
2019-03-22T10:33:23.003Z,12.70
2019-03-22T10:36:09.294Z,14.13
2019-03-22T10:39:09.779Z,13.07
2019-03-22T10:42:00.220Z,13.10
2019-03-22T10:48:03.865Z,13.03
2019-03-22T10:50:54.487Z,13.33
2019-03-22T10:53:50.199Z,12.53
2019-03-22T10:56:38.534Z,13.00
2019-03-22T10:59:34.010Z,12.97
2019-03-22T11:02:24.480Z,12.57
2019-03-22T11:05:16.027Z,11.77
2019-03-22T11:08:12.609Z,12.00
2019-03-22T11:11:06.559Z,12.20
2019-03-22T11:13:56.438Z,11.80
2019-03-22T11:16:54.784Z,11.60
2019-03-22T11:19:46.420Z,11.73
2019-03-22T11:22:38.488Z,11.07
2019-03-22T11:25:31.311Z,11.43
2019-03-22T11:28:25.645Z,11.93
2019-03-22T11:31:15.537Z,10.30
2019-03-22T11:34:04.302Z,10.00
2019-03-22T11:37:09.889Z,9.90
2019-03-22T11:40:00.478Z,9.37
2019-03-22T11:43:09.054Z,9.37
2019-03-22T11:46:01.134Z,8.93
2019-03-22T11:48:54.284Z,9.43
2019-03-22T11:51:43.544Z,9.13
2019-03-22T11:54:47.517Z,9.83
2019-03-22T11:57:36.154Z,9.70
2019-03-22T12:00:25.986Z,10.13
2019-03-22T12:03:17.836Z,9.33
2019-03-22T12:06:16.622Z,9.70
2019-03-22T12:09:30.038Z,9.23
2019-03-22T12:12:21.961Z,9.23
2019-03-22T12:15:23.624Z,9.57
2019-03-22T12:18:40.115Z,9.67
2019-03-22T12:25:00.424Z,9.43
2019-03-22T12:31:40.280Z,7.80
2019-03-22T12:35:29.418Z,9.70
2019-03-22T12:38:53.612Z,9.53
2019-03-22T12:41:43.031Z,8.90
2019-03-22T12:44:35.826Z,9.60
2019-03-22T12:47:24.642Z,9.53
2019-03-22T12:50:19.816Z,8.47
2019-03-22T12:53:25.395Z,9.43
2019-03-22T12:56:21.018Z,8.90
2019-03-22T12:59:20.756Z,9.60
2019-03-22T13:02:10.124Z,9.23
2019-03-22T13:05:00.424Z,10.27
2019-03-22T13:07:48.564Z,9.73
2019-03-22T13:10:39.231Z,10.07
2019-03-22T13:13:27.589Z,10.07
2019-03-22T13:16:15.428Z,9.97
2019-03-22T13:19:03.836Z,8.90
2019-03-22T13:21:53.851Z,9.53
2019-03-22T13:24:47.792Z,10.10
2019-03-22T13:27:39.182Z,9.63
2019-03-22T13:30:37.512Z,10.43
2019-03-22T13:33:25.850Z,10.57
2019-03-22T13:36:14.071Z,10.20
2019-03-22T13:39:02.526Z,9.67
2019-03-22T13:41:50.772Z,9.30
2019-03-22T13:44:38.909Z,11.00
2019-03-22T13:47:27.124Z,10.37
2019-03-22T13:50:15.575Z,10.20
2019-03-22T13:53:03.780Z,10.47
2019-03-22T13:55:51.902Z,11.93
2019-03-22T13:58:39.911Z,12.13
2019-03-22T14:01:27.917Z,11.67
2019-03-22T14:04:16.044Z,10.47
2019-03-22T14:07:05.184Z,10.73
2019-03-22T14:09:53.427Z,10.60
2019-03-22T14:12:41.120Z,10.80
2019-03-22T14:15:29.421Z,12.00
2019-03-22T14:18:18.376Z,11.33
2019-03-22T14:21:06.659Z,11.30
2019-03-22T14:23:54.777Z,12.07
2019-03-22T14:26:43.085Z,12.00
2019-03-22T14:29:31.260Z,12.63
2019-03-22T14:32:18.975Z,11.60
2019-03-22T14:35:07.455Z,13.70
2019-03-22T14:37:55.274Z,12.47
2019-03-22T14:40:43.289Z,12.27
2019-03-22T14:43:31.392Z,12.67
2019-03-22T14:46:19.247Z,12.70
2019-03-22T14:49:06.887Z,13.10
2019-03-22T14:51:54.547Z,11.40
2019-03-22T14:54:42.980Z,13.50
2019-03-22T14:57:35.509Z,12.67
2019-03-22T15:00:27.568Z,13.07
2019-03-22T15:03:32.903Z,13.30
2019-03-22T15:06:22.278Z,12.97
2019-03-22T15:09:11.337Z,13.43
2019-03-22T15:12:01.547Z,14.07
2019-03-22T15:15:04.924Z,13.67
2019-03-22T15:18:22.045Z,13.03
2019-03-22T15:21:32.310Z,13.07
2019-03-22T15:24:59.572Z,13.10
2019-03-22T15:28:26.876Z,12.00
2019-03-22T15:31:46.053Z,12.97
2019-03-22T15:34:52.056Z,11.60
2019-03-22T15:38:03.758Z,11.77
2019-03-22T15:40:51.945Z,11.70
2019-03-22T15:43:39.805Z,12.63
2019-03-22T15:46:27.409Z,12.47
2019-03-22T15:49:15.471Z,13.30
2019-03-22T15:52:03.400Z,26.17
2019-03-22T15:54:51.441Z,23.27
2019-03-22T15:57:39.472Z,15.10
2019-03-22T16:00:27.646Z,15.57
2019-03-22T16:03:15.922Z,16.90
2019-03-22T16:06:04.078Z,15.27
2019-03-22T16:08:52.084Z,13.73
2019-03-22T16:11:40.021Z,17.53
2019-03-22T16:14:27.948Z,17.67
2019-03-22T16:17:15.967Z,13.47
2019-03-22T16:20:04.051Z,15.20
2019-03-22T16:22:52.060Z,16.43
2019-03-22T16:25:39.757Z,14.60
2019-03-22T16:28:27.459Z,20.77
2019-03-22T16:31:15.366Z,15.60
2019-03-22T16:34:03.174Z,14.03
2019-03-22T16:36:51.323Z,14.33
2019-03-22T16:39:39.601Z,14.53
2019-03-22T16:42:27.479Z,14.63
2019-03-22T16:45:35.639Z,15.57
2019-03-22T16:48:23.643Z,14.37
2019-03-22T16:51:11.357Z,15.03
2019-03-22T16:54:00.039Z,14.63
2019-03-22T16:56:47.767Z,15.20
2019-03-22T16:59:35.506Z,15.13
2019-03-22T17:02:24.420Z,15.60
2019-03-22T17:05:32.920Z,15.87
2019-03-22T17:08:22.408Z,16.03
2019-03-22T17:11:11.169Z,16.80
2019-03-22T17:14:21.884Z,15.80
2019-03-22T17:17:13.669Z,15.43
2019-03-22T17:20:24.432Z,16.57
2019-03-22T17:23:16.412Z,16.13
2019-03-22T17:26:18.319Z,16.47
2019-03-22T17:29:09.333Z,16.93
2019-03-22T17:32:03.865Z,16.73
2019-03-22T17:34:53.300Z,16.80
2019-03-22T17:37:44.216Z,16.50
2019-03-22T17:40:57.041Z,16.03
2019-03-22T17:43:51.915Z,15.97
2019-03-22T17:46:44.366Z,16.43
2019-03-22T17:49:47.829Z,16.10
2019-03-22T17:52:30.070Z,16.63
2019-03-22T17:55:37.431Z,16.27
2019-03-22T17:58:47.615Z,15.83
2019-03-22T18:01:43.145Z,15.63
2019-03-22T18:04:35.150Z,15.33
2019-03-22T18:07:24.536Z,17.90
2019-03-22T18:10:16.884Z,19.00
2019-03-22T18:13:10.357Z,16.30
2019-03-22T18:16:22.204Z,15.80
2019-03-22T18:19:24.009Z,16.57
2019-03-22T18:22:19.319Z,16.50
2019-03-22T18:25:12.603Z,20.57
2019-03-22T18:28:18.243Z,16.23
2019-03-22T18:31:06.428Z,16.67
2019-03-22T18:33:54.160Z,16.27
2019-03-22T18:36:42.254Z,17.50
2019-03-22T18:39:30.138Z,17.23
2019-03-22T18:42:19.033Z,15.50
2019-03-22T18:45:08.138Z,16.87
2019-03-22T18:47:56.320Z,16.47
2019-03-22T18:51:07.813Z,23.77
2019-03-22T18:53:59.736Z,20.50
2019-03-22T18:56:52.532Z,17.73
2019-03-22T18:59:43.226Z,17.03
2019-03-22T19:02:39.759Z,20.53
2019-03-22T19:05:32.212Z,21.73
2019-03-22T19:08:21.272Z,22.37
2019-03-22T19:11:12.395Z,21.63
2019-03-22T19:14:23.469Z,22.97
2019-03-22T19:17:12.269Z,27.53
2019-03-22T19:20:21.560Z,23.37
2019-03-22T19:23:13.074Z,23.13
2019-03-22T19:26:02.188Z,23.83
2019-03-22T19:28:50.381Z,22.13
2019-03-22T19:31:38.852Z,21.67
2019-03-22T19:34:26.933Z,22.13
2019-03-22T19:37:15.119Z,20.90
2019-03-22T19:40:03.675Z,20.47
2019-03-22T19:42:52.511Z,21.33
2019-03-22T19:45:40.822Z,20.93
2019-03-22T19:48:29.204Z,21.53
2019-03-22T19:51:17.676Z,19.67
2019-03-22T19:54:06.256Z,20.83
2019-03-22T19:56:54.398Z,20.53
2019-03-22T19:59:42.464Z,21.67
2019-03-22T20:02:30.420Z,21.37
2019-03-22T20:05:29.048Z,19.87
2019-03-22T20:08:17.326Z,20.37
2019-03-22T20:11:05.952Z,20.17
2019-03-22T20:13:54.337Z,21.57
2019-03-22T20:16:42.674Z,21.97
2019-03-22T20:19:32.007Z,21.40
2019-03-22T20:22:22.691Z,19.53
2019-03-22T20:25:10.746Z,20.50
2019-03-22T20:27:58.543Z,20.80
2019-03-22T20:30:46.607Z,20.70
2019-03-22T20:33:34.950Z,21.90
2019-03-22T20:36:23.103Z,22.13
2019-03-22T20:39:11.170Z,22.33
2019-03-22T20:42:00.917Z,22.67
2019-03-22T20:44:49.089Z,22.47
2019-03-22T20:47:37.223Z,22.67
2019-03-22T20:50:35.183Z,21.93
2019-03-22T20:53:16.954Z,21.70
2019-03-22T20:56:05.084Z,20.90
2019-03-22T20:58:53.577Z,21.70
2019-03-22T21:01:41.959Z,22.37
2019-03-22T21:04:32.309Z,21.60
2019-03-22T21:07:24.979Z,20.97
2019-03-22T21:10:13.342Z,20.87
2019-03-22T21:13:01.292Z,22.00
2019-03-22T21:15:49.375Z,20.47
2019-03-22T21:18:37.163Z,20.43
2019-03-22T21:21:35.639Z,22.10
2019-03-22T21:24:14.642Z,21.73
2019-03-22T21:27:02.409Z,23.40
2019-03-22T21:29:50.625Z,22.27
2019-03-22T21:32:45.141Z,22.80
2019-03-22T21:35:36.899Z,22.23
2019-03-22T21:38:17.724Z,25.43
2019-03-22T21:41:06.118Z,24.07
2019-03-22T21:43:54.286Z,24.20
2019-03-22T21:46:42.800Z,23.23
2019-03-22T21:49:31.138Z,22.37
2019-03-22T21:52:18.790Z,20.40
2019-03-22T21:55:06.955Z,21.07
2019-03-22T21:57:55.602Z,21.83
2019-03-22T22:03:09.304Z,23.83
2019-03-22T22:05:57.901Z,24.60
2019-03-22T22:08:46.028Z,24.27
2019-03-22T22:11:33.682Z,22.57
2019-03-22T22:14:21.841Z,22.40
2019-03-22T22:17:09.889Z,21.57
2019-03-22T22:19:58.066Z,21.60
2019-03-22T22:22:46.027Z,22.83
2019-03-22T22:25:33.764Z,21.23
2019-03-22T22:28:21.591Z,21.80
2019-03-22T22:31:10.272Z,22.37
2019-03-22T22:33:58.852Z,21.57
2019-03-22T22:36:47.015Z,21.23
2019-03-22T22:39:35.241Z,21.70
2019-03-22T22:42:23.412Z,21.23
2019-03-22T22:45:11.671Z,22.63
2019-03-22T22:48:00.075Z,22.80
2019-03-22T22:50:48.377Z,22.07
2019-03-22T22:53:36.705Z,22.30
2019-03-22T22:56:24.713Z,22.23
2019-03-22T22:59:12.783Z,21.50
2019-03-22T23:02:00.718Z,22.07
2019-03-22T23:04:48.684Z,22.67
2019-03-22T23:07:37.139Z,24.60
2019-03-22T23:10:25.124Z,23.07
2019-03-22T23:13:13.134Z,24.00
2019-03-22T23:16:01.295Z,23.40
2019-03-22T23:18:49.448Z,21.23
2019-03-22T23:21:37.494Z,23.07
2019-03-22T23:24:25.323Z,23.27
2019-03-22T23:27:13.475Z,23.50
2019-03-22T23:30:01.373Z,23.30
2019-03-22T23:32:49.088Z,23.60
2019-03-22T23:35:37.213Z,24.03
2019-03-22T23:38:25.054Z,23.57
2019-03-22T23:41:13.006Z,26.10
2019-03-22T23:44:00.856Z,25.33
2019-03-22T23:46:48.731Z,24.13
2019-03-22T23:49:37.333Z,22.90
2019-03-22T23:52:26.318Z,21.90
2019-03-22T23:55:16.290Z,22.23
2019-03-22T23:58:04.943Z,21.80
